createdAt,value
2022-12-17T00:01:02.150Z,27.58
2022-12-17T00:03:34.841Z,22.42
2022-12-17T00:06:06.717Z,24.88
2022-12-17T00:08:38.100Z,25.33
2022-12-17T00:11:09.554Z,22.88
2022-12-17T00:13:41.165Z,24.97
2022-12-17T00:16:12.675Z,27.67
2022-12-17T00:18:44.121Z,25.42
2022-12-17T00:21:15.521Z,25.88
2022-12-17T00:23:47.807Z,24.50
2022-12-17T00:26:19.254Z,27.23
2022-12-17T00:28:50.749Z,26.83
2022-12-17T00:31:25.688Z,28.08
2022-12-17T00:33:57.321Z,28.15
2022-12-17T00:36:28.760Z,27.20
2022-12-17T00:39:00.198Z,25.57
2022-12-17T00:41:31.677Z,26.60
2022-12-17T00:44:03.214Z,26.33
2022-12-17T00:46:34.685Z,25.67
2022-12-17T00:49:06.206Z,26.88
2022-12-17T00:51:37.609Z,26.38
2022-12-17T00:54:09.408Z,24.05
2022-12-17T00:56:40.826Z,26.92
2022-12-17T00:59:12.311Z,27.38
2022-12-17T01:01:43.949Z,27.42
2022-12-17T01:04:15.532Z,24.45
2022-12-17T01:06:46.931Z,27.50
2022-12-17T01:09:18.491Z,25.67
2022-12-17T01:11:49.934Z,23.33
2022-12-17T01:14:21.523Z,25.30
2022-12-17T01:16:52.954Z,28.25
2022-12-17T01:19:27.631Z,25.08
2022-12-17T01:21:59.053Z,25.10
2022-12-17T01:24:30.774Z,26.27
2022-12-17T01:27:02.174Z,24.97
2022-12-17T01:29:33.625Z,25.20
2022-12-17T01:32:05.226Z,26.05
2022-12-17T01:34:36.742Z,24.50
2022-12-17T01:37:08.135Z,28.42
2022-12-17T01:39:39.640Z,26.58
2022-12-17T01:42:14.201Z,25.05
2022-12-17T01:44:54.404Z,27.67
2022-12-17T01:47:30.404Z,25.13
2022-12-17T01:50:01.890Z,25.15
2022-12-17T01:52:33.905Z,25.00
2022-12-17T01:55:06.749Z,26.02
2022-12-17T01:57:38.850Z,26.70
2022-12-17T02:00:13.917Z,24.90
2022-12-17T02:02:45.509Z,24.50
2022-12-17T02:05:18.597Z,21.45
2022-12-17T02:08:02.931Z,24.58
2022-12-17T02:10:53.724Z,25.52
2022-12-17T02:13:34.728Z,24.17
2022-12-17T02:16:09.057Z,24.20
2022-12-17T02:18:48.742Z,23.40
2022-12-17T02:21:21.623Z,24.67
2022-12-17T02:24:12.028Z,26.95
2022-12-17T02:26:47.098Z,22.52
2022-12-17T02:29:20.633Z,27.50
2022-12-17T02:31:53.022Z,24.73
2022-12-17T02:34:24.687Z,26.30
2022-12-17T02:36:56.111Z,21.13
2022-12-17T02:39:27.694Z,22.83
2022-12-17T02:41:59.583Z,23.85
2022-12-17T02:44:34.482Z,23.58
2022-12-17T02:47:08.664Z,23.88
2022-12-17T02:49:40.168Z,24.97
2022-12-17T02:52:12.927Z,23.27
2022-12-17T02:54:44.332Z,22.92
2022-12-17T02:57:15.837Z,22.08
2022-12-17T02:59:47.270Z,21.00
2022-12-17T03:02:18.848Z,23.35
2022-12-17T03:04:50.402Z,25.40
2022-12-17T03:07:21.856Z,22.30
2022-12-17T03:09:53.238Z,28.23
2022-12-17T03:12:24.773Z,21.35
2022-12-17T03:14:56.221Z,22.17
2022-12-17T03:17:29.835Z,20.47
2022-12-17T03:20:01.228Z,23.45
2022-12-17T03:22:32.729Z,21.83
2022-12-17T03:25:04.515Z,20.75
2022-12-17T03:27:35.936Z,20.27
2022-12-17T03:30:07.724Z,20.02
2022-12-17T03:32:39.152Z,20.95
2022-12-17T03:35:10.556Z,21.30
2022-12-17T03:37:42.021Z,25.47
2022-12-17T03:40:13.496Z,21.73
2022-12-17T03:42:44.907Z,23.13
2022-12-17T03:45:16.457Z,26.93
2022-12-17T03:47:47.872Z,23.15
2022-12-17T03:50:19.288Z,22.30
2022-12-17T03:52:50.743Z,23.57
2022-12-17T03:55:22.175Z,24.30
2022-12-17T03:57:53.639Z,26.92
2022-12-17T04:00:25.056Z,27.03
2022-12-17T04:02:56.692Z,30.45
2022-12-17T04:05:28.241Z,28.90
2022-12-17T04:07:59.676Z,28.13
2022-12-17T04:10:31.128Z,25.73
2022-12-17T04:13:02.532Z,30.65
2022-12-17T04:15:34.068Z,31.45
2022-12-17T04:18:05.597Z,27.08
2022-12-17T04:20:37.058Z,27.50
2022-12-17T04:23:08.501Z,30.80
2022-12-17T04:25:39.971Z,29.60
2022-12-17T04:28:11.380Z,31.50
2022-12-17T04:30:42.856Z,28.77
2022-12-17T04:33:14.269Z,34.13
2022-12-17T04:35:45.683Z,37.17
2022-12-17T04:38:17.116Z,28.55
2022-12-17T04:40:48.918Z,27.73
2022-12-17T04:43:20.312Z,29.87
2022-12-17T04:45:51.801Z,28.98
2022-12-17T04:48:23.358Z,28.85
2022-12-17T04:50:54.956Z,32.33
2022-12-17T04:53:26.367Z,29.70
2022-12-17T04:55:57.794Z,29.88
2022-12-17T04:58:32.878Z,28.55
2022-12-17T05:01:04.280Z,30.55
2022-12-17T05:03:36.144Z,33.83
2022-12-17T05:06:09.231Z,30.27
2022-12-17T05:08:41.648Z,34.00
2022-12-17T05:11:13.212Z,30.27
2022-12-17T05:13:44.704Z,31.67
2022-12-17T05:16:16.678Z,33.47
2022-12-17T05:18:48.094Z,32.17
2022-12-17T05:21:19.524Z,36.92
2022-12-17T05:23:50.943Z,36.80
2022-12-17T05:26:28.148Z,35.50
2022-12-17T05:28:59.533Z,35.20
2022-12-17T05:31:31.030Z,36.90
2022-12-17T05:34:02.527Z,40.45
2022-12-17T05:36:34.044Z,34.42
2022-12-17T05:39:05.494Z,37.60
2022-12-17T05:41:37.010Z,34.92
2022-12-17T05:44:08.469Z,35.63
2022-12-17T05:46:39.991Z,32.50
2022-12-17T05:49:11.474Z,31.92
2022-12-17T05:51:42.875Z,34.57
2022-12-17T05:54:14.258Z,37.58
2022-12-17T05:56:45.679Z,35.05
2022-12-17T05:59:17.090Z,35.38
2022-12-17T06:01:48.595Z,33.70
2022-12-17T06:04:20.088Z,40.78
2022-12-17T06:06:51.507Z,41.47
2022-12-17T06:09:23.744Z,46.95
2022-12-17T06:11:59.471Z,40.15
2022-12-17T06:14:33.867Z,39.70
2022-12-17T06:17:05.304Z,48.70
2022-12-17T06:19:36.739Z,54.63
2022-12-17T06:22:08.146Z,50.60
2022-12-17T06:24:44.240Z,49.60
2022-12-17T06:27:17.443Z,52.80
2022-12-17T06:29:48.869Z,51.50
2022-12-17T06:32:20.264Z,60.70
2022-12-17T06:34:51.668Z,54.97
2022-12-17T06:37:23.057Z,55.67
2022-12-17T06:39:54.494Z,55.72
2022-12-17T06:42:25.881Z,55.67
2022-12-17T06:44:57.309Z,51.17
2022-12-17T06:47:28.707Z,60.78
2022-12-17T06:50:01.601Z,54.25
2022-12-17T06:52:33.237Z,56.13
2022-12-17T06:55:04.918Z,56.60
2022-12-17T06:57:40.469Z,55.70
2022-12-17T07:00:16.421Z,59.70
2022-12-17T07:02:47.955Z,54.55
2022-12-17T07:05:19.441Z,55.97
2022-12-17T07:07:57.492Z,49.30
2022-12-17T07:10:29.022Z,54.17
2022-12-17T07:13:05.408Z,55.57
2022-12-17T07:15:36.859Z,55.97
2022-12-17T07:18:08.387Z,72.35
2022-12-17T07:20:39.850Z,59.58
2022-12-17T07:23:11.281Z,55.10
2022-12-17T07:25:46.014Z,50.47
2022-12-17T07:28:17.835Z,55.65
2022-12-17T07:30:55.505Z,53.20
2022-12-17T07:33:27.275Z,60.78
2022-12-17T07:35:58.706Z,46.72
2022-12-17T07:38:30.497Z,50.20
2022-12-17T07:41:01.965Z,46.75
2022-12-17T07:43:33.690Z,47.75
2022-12-17T07:46:05.264Z,44.83
2022-12-17T07:48:36.702Z,49.33
2022-12-17T07:51:08.165Z,45.17
2022-12-17T07:53:39.654Z,47.77
2022-12-17T07:56:11.198Z,49.85
2022-12-17T07:58:42.641Z,45.42
2022-12-17T08:01:14.326Z,50.42
2022-12-17T08:03:46.400Z,47.20
2022-12-17T08:06:17.951Z,46.25
2022-12-17T08:08:49.341Z,49.20
2022-12-17T08:11:21.629Z,57.42
2022-12-17T08:13:53.073Z,50.07
2022-12-17T08:16:24.531Z,41.88
2022-12-17T08:18:55.938Z,42.45
2022-12-17T08:21:27.336Z,44.80
2022-12-17T08:23:58.852Z,49.58
2022-12-17T08:26:30.288Z,43.55
2022-12-17T08:29:01.671Z,43.83
2022-12-17T08:31:33.119Z,45.05
2022-12-17T08:34:07.892Z,42.17
2022-12-17T08:36:39.685Z,39.08
2022-12-17T08:39:11.097Z,44.53
2022-12-17T08:41:42.526Z,42.65
2022-12-17T08:44:13.970Z,39.45
2022-12-17T08:46:45.362Z,36.03
2022-12-17T08:49:16.849Z,44.25
2022-12-17T08:51:48.286Z,42.37
2022-12-17T08:54:19.742Z,42.10
2022-12-17T08:56:51.191Z,47.78
2022-12-17T08:59:23.811Z,35.43
2022-12-17T09:01:55.297Z,39.58
2022-12-17T09:04:26.809Z,43.30
2022-12-17T09:06:58.216Z,34.00
2022-12-17T09:09:29.668Z,39.55
2022-12-17T09:12:01.148Z,37.90
2022-12-17T09:14:32.553Z,35.53
2022-12-17T09:17:04.176Z,37.53
2022-12-17T09:19:35.650Z,40.58
2022-12-17T09:22:07.072Z,39.60
2022-12-17T09:24:41.364Z,38.55
2022-12-17T09:27:12.842Z,42.30
2022-12-17T09:29:44.282Z,35.97
2022-12-17T09:32:15.692Z,34.47
2022-12-17T09:34:47.138Z,38.10
2022-12-17T09:37:18.572Z,38.38
2022-12-17T09:39:50.089Z,41.22
2022-12-17T09:42:38.416Z,37.20
2022-12-17T09:45:27.681Z,36.27
2022-12-17T09:48:13.919Z,34.83
2022-12-17T09:50:46.732Z,35.13
2022-12-17T09:53:32.444Z,40.08
2022-12-17T09:56:04.557Z,38.25
2022-12-17T09:58:38.838Z,36.03
2022-12-17T10:01:17.835Z,34.38
2022-12-17T10:03:49.835Z,39.65
2022-12-17T10:06:27.918Z,37.38
2022-12-17T10:09:01.569Z,37.77
2022-12-17T10:11:35.465Z,35.30
2022-12-17T10:14:21.341Z,37.28
2022-12-17T10:16:52.792Z,34.22
2022-12-17T10:19:36.915Z,33.10
2022-12-17T10:22:10.812Z,34.00
2022-12-17T10:24:45.512Z,31.88
2022-12-17T10:27:20.096Z,31.33
2022-12-17T10:29:51.506Z,33.30
2022-12-17T10:32:25.362Z,32.92
2022-12-17T10:35:03.334Z,28.58
2022-12-17T10:37:36.792Z,29.83
2022-12-17T10:40:23.117Z,29.88
2022-12-17T10:42:54.543Z,32.13
2022-12-17T10:45:28.995Z,31.17
2022-12-17T10:48:00.402Z,31.20
2022-12-17T10:50:32.933Z,29.25
2022-12-17T10:53:19.879Z,30.90
2022-12-17T10:55:58.068Z,34.60
2022-12-17T10:58:29.861Z,31.20
2022-12-17T11:01:02.861Z,34.80
2022-12-17T11:03:48.677Z,32.55
2022-12-17T11:06:26.963Z,30.50
2022-12-17T11:09:03.378Z,33.60
2022-12-17T11:11:34.948Z,33.08
2022-12-17T11:14:09.770Z,32.40
2022-12-17T11:16:51.140Z,28.17
2022-12-17T11:19:40.832Z,30.27
2022-12-17T11:22:25.096Z,30.00
2022-12-17T11:25:06.195Z,28.85
2022-12-17T11:27:49.422Z,28.33
2022-12-17T11:30:23.152Z,27.08
2022-12-17T11:33:16.424Z,27.90
2022-12-17T11:35:59.616Z,29.45
2022-12-17T11:38:37.542Z,27.52
2022-12-17T11:41:18.038Z,26.73
2022-12-17T11:44:09.409Z,30.80
2022-12-17T11:47:05.300Z,31.48
2022-12-17T11:49:59.531Z,26.17
2022-12-17T11:52:46.045Z,32.63
2022-12-17T11:55:45.720Z,26.75
2022-12-17T11:58:51.964Z,28.20
2022-12-17T12:01:44.604Z,29.13
2022-12-17T12:04:47.137Z,27.88
2022-12-17T12:07:36.997Z,26.10
2022-12-17T12:10:19.901Z,25.20
2022-12-17T12:13:27.155Z,24.35
2022-12-17T12:16:12.679Z,25.73
2022-12-17T12:18:50.098Z,25.67
2022-12-17T12:21:38.685Z,26.25
2022-12-17T12:24:37.820Z,25.20
2022-12-17T12:27:42.206Z,27.33
2022-12-17T12:30:21.717Z,28.27
2022-12-17T12:33:17.188Z,26.77
2022-12-17T12:35:48.671Z,24.08
2022-12-17T12:38:28.565Z,24.38
2022-12-17T12:41:16.628Z,28.77
2022-12-17T12:43:54.082Z,27.40
2022-12-17T12:46:38.162Z,25.17
2022-12-17T12:49:34.720Z,23.70
2022-12-17T12:52:06.457Z,29.70
2022-12-17T12:54:47.081Z,29.15
2022-12-17T12:57:34.004Z,27.67
2022-12-17T13:00:05.970Z,28.45
2022-12-17T13:02:37.801Z,26.83
2022-12-17T13:05:53.941Z,25.30
2022-12-17T13:08:25.775Z,27.98
2022-12-17T13:10:57.261Z,31.58
2022-12-17T13:13:39.714Z,28.58
2022-12-17T13:16:43.073Z,25.65
2022-12-17T13:19:20.400Z,29.80
2022-12-17T13:21:51.839Z,28.02
2022-12-17T13:24:26.015Z,29.40
2022-12-17T13:26:57.505Z,32.20
2022-12-17T13:29:33.187Z,31.60
2022-12-17T13:32:27.491Z,26.83
2022-12-17T13:35:05.661Z,30.92
2022-12-17T13:38:04.570Z,31.10
2022-12-17T13:40:44.426Z,34.70
2022-12-17T13:43:18.692Z,28.77
2022-12-17T13:45:51.908Z,30.80
2022-12-17T13:48:26.409Z,30.73
2022-12-17T13:51:01.285Z,32.42
2022-12-17T13:53:32.934Z,28.35
2022-12-17T13:56:04.545Z,29.20
2022-12-17T13:58:36.393Z,28.23
2022-12-17T14:01:11.592Z,31.05
2022-12-17T14:04:05.932Z,32.67
2022-12-17T14:06:38.539Z,32.78
2022-12-17T14:09:16.736Z,32.33
2022-12-17T14:11:49.387Z,32.60
2022-12-17T14:14:30.573Z,33.00
2022-12-17T14:17:02.261Z,33.95
2022-12-17T14:19:33.928Z,30.52
2022-12-17T14:22:05.592Z,35.40
2022-12-17T14:24:38.372Z,34.92
2022-12-17T14:27:26.852Z,36.33
2022-12-17T14:29:58.307Z,32.63
2022-12-17T14:32:35.070Z,31.07
2022-12-17T14:35:06.688Z,33.03
2022-12-17T14:37:38.171Z,32.03
2022-12-17T14:40:14.549Z,29.90
2022-12-17T14:42:46.157Z,29.13
2022-12-17T14:45:17.585Z,33.60
2022-12-17T14:48:02.586Z,34.13
2022-12-17T14:50:37.264Z,31.90
2022-12-17T14:53:26.454Z,28.25
2022-12-17T14:55:59.278Z,31.85
2022-12-17T14:58:31.402Z,30.65
2022-12-17T15:01:13.715Z,29.88
2022-12-17T15:03:45.543Z,30.50
2022-12-17T15:06:19.723Z,32.38
2022-12-17T15:08:51.491Z,34.42
2022-12-17T15:11:23.777Z,32.63
2022-12-17T15:13:56.769Z,35.22
2022-12-17T15:16:28.554Z,34.25
2022-12-17T15:18:59.989Z,38.67
2022-12-17T15:21:36.344Z,37.88
2022-12-17T15:24:35.348Z,35.88
2022-12-17T15:27:19.103Z,40.58
2022-12-17T15:29:53.902Z,41.25
2022-12-17T15:32:25.795Z,38.03
2022-12-17T15:34:59.761Z,44.47
2022-12-17T15:37:31.344Z,49.40
2022-12-17T15:40:11.039Z,46.65
2022-12-17T15:42:43.880Z,44.58
2022-12-17T15:45:18.323Z,48.25
2022-12-17T15:47:56.822Z,51.53
2022-12-17T15:50:28.298Z,55.83
2022-12-17T15:52:59.704Z,48.80
2022-12-17T15:55:31.718Z,55.75
2022-12-17T15:58:03.708Z,53.67
2022-12-17T16:00:35.211Z,53.83
2022-12-17T16:03:06.701Z,54.00
2022-12-17T16:05:39.152Z,58.13
2022-12-17T16:08:15.608Z,57.53
2022-12-17T16:10:47.012Z,56.38
2022-12-17T16:13:19.090Z,59.33
2022-12-17T16:16:03.887Z,58.88
2022-12-17T16:18:36.671Z,55.45
2022-12-17T16:21:08.832Z,60.55
2022-12-17T16:23:40.275Z,58.75
2022-12-17T16:26:12.101Z,61.17
2022-12-17T16:28:43.792Z,62.25
2022-12-17T16:31:15.587Z,64.40
2022-12-17T16:33:47.446Z,64.28
2022-12-17T16:36:21.223Z,69.95
2022-12-17T16:38:54.340Z,61.53
2022-12-17T16:41:25.733Z,67.93
2022-12-17T16:43:57.273Z,66.13
2022-12-17T16:46:29.950Z,68.07
2022-12-17T16:49:13.771Z,69.20
2022-12-17T16:51:46.970Z,74.20
2022-12-17T16:54:23.418Z,69.05
2022-12-17T16:56:55.096Z,75.00
2022-12-17T16:59:26.513Z,74.95
2022-12-17T17:01:58.175Z,72.33
2022-12-17T17:04:29.642Z,71.80
2022-12-17T17:07:01.094Z,76.15
2022-12-17T17:09:32.492Z,74.07
2022-12-17T17:12:04.157Z,74.55
2022-12-17T17:14:35.995Z,77.28
2022-12-17T17:17:07.430Z,79.40
2022-12-17T17:19:38.883Z,82.03
2022-12-17T17:22:10.275Z,79.57
2022-12-17T17:24:41.708Z,84.55
2022-12-17T17:27:13.125Z,79.28
2022-12-17T17:29:44.601Z,84.05
2022-12-17T17:32:16.052Z,80.10
2022-12-17T17:34:47.516Z,85.25
2022-12-17T17:37:18.934Z,88.07
2022-12-17T17:39:50.337Z,83.60
2022-12-17T17:42:21.786Z,89.90
2022-12-17T17:44:53.224Z,97.82
2022-12-17T17:47:24.619Z,93.13
2022-12-17T17:49:56.085Z,88.13
2022-12-17T17:52:27.500Z,91.82
2022-12-17T17:54:58.917Z,88.10
2022-12-17T17:57:30.417Z,93.72
2022-12-17T18:00:01.802Z,97.75
2022-12-17T18:02:33.307Z,104.25
2022-12-17T18:05:05.112Z,102.43
2022-12-17T18:07:36.505Z,107.20
2022-12-17T18:10:08.423Z,103.40
2022-12-17T18:12:39.881Z,102.47
2022-12-17T18:15:16.430Z,104.60
2022-12-17T18:17:51.974Z,106.35
2022-12-17T18:20:23.384Z,109.65
2022-12-17T18:22:54.849Z,107.17
2022-12-17T18:25:32.884Z,110.60
2022-12-17T18:28:08.660Z,109.68
2022-12-17T18:30:40.082Z,109.85
2022-12-17T18:33:11.528Z,111.88
2022-12-17T18:35:42.908Z,106.30
2022-12-17T18:38:14.342Z,103.75
2022-12-17T18:40:45.792Z,105.22
2022-12-17T18:43:17.225Z,109.87
2022-12-17T18:45:49.001Z,108.50
2022-12-17T18:48:20.366Z,106.82
2022-12-17T18:50:51.778Z,100.93
2022-12-17T18:53:24.828Z,114.50
2022-12-17T18:55:56.284Z,116.65
2022-12-17T18:58:27.732Z,104.72
2022-12-17T19:00:59.282Z,117.88
2022-12-17T19:03:31.088Z,119.05
2022-12-17T19:06:05.624Z,113.47
2022-12-17T19:08:37.316Z,117.37
2022-12-17T19:11:10.439Z,124.25
2022-12-17T19:13:41.901Z,118.72
2022-12-17T19:16:18.640Z,115.30
2022-12-17T19:18:58.219Z,104.50
2022-12-17T19:21:31.124Z,119.57
2022-12-17T19:24:05.566Z,122.40
2022-12-17T19:26:37.036Z,120.68
2022-12-17T19:29:08.673Z,121.15
2022-12-17T19:31:40.517Z,121.33
2022-12-17T19:34:14.156Z,123.55
2022-12-17T19:36:46.797Z,121.18
2022-12-17T19:39:20.009Z,129.20
2022-12-17T19:41:51.656Z,121.55
2022-12-17T19:44:23.247Z,115.30
2022-12-17T19:46:54.636Z,125.28
2022-12-17T19:49:26.027Z,116.18
2022-12-17T19:51:57.433Z,121.87
2022-12-17T19:54:29.084Z,120.15
2022-12-17T19:57:00.487Z,115.70
2022-12-17T19:59:31.929Z,104.90
2022-12-17T20:02:03.516Z,121.00
2022-12-17T20:04:35.122Z,121.90
2022-12-17T20:07:06.594Z,118.22
2022-12-17T20:09:38.061Z,115.10
2022-12-17T20:12:09.529Z,122.30
2022-12-17T20:14:41.005Z,118.00
2022-12-17T20:17:12.486Z,111.68
2022-12-17T20:19:43.935Z,114.55
2022-12-17T20:22:15.391Z,112.45
2022-12-17T20:24:46.827Z,110.63
2022-12-17T20:27:18.224Z,102.03
2022-12-17T20:29:49.605Z,107.47
2022-12-17T20:32:21.077Z,99.05
2022-12-17T20:34:52.520Z,107.82
2022-12-17T20:37:24.019Z,105.07
2022-12-17T20:39:55.504Z,109.43
2022-12-17T20:42:26.934Z,95.18
2022-12-17T20:44:58.402Z,101.13
2022-12-17T20:47:29.890Z,94.47
2022-12-17T20:50:01.402Z,97.95
2022-12-17T20:52:32.793Z,95.80
2022-12-17T20:55:04.524Z,93.78
2022-12-17T20:57:35.931Z,94.25
2022-12-17T21:00:08.397Z,95.47
2022-12-17T21:02:40.006Z,93.57
2022-12-17T21:05:11.615Z,88.28
2022-12-17T21:07:43.004Z,93.13
2022-12-17T21:10:14.416Z,99.33
2022-12-17T21:12:45.806Z,91.07
2022-12-17T21:15:17.344Z,93.18
2022-12-17T21:17:48.753Z,91.47
2022-12-17T21:20:20.724Z,88.60
2022-12-17T21:22:52.529Z,96.78
2022-12-17T21:25:23.933Z,96.15
2022-12-17T21:27:55.389Z,88.63
2022-12-17T21:30:26.851Z,94.93
2022-12-17T21:32:58.340Z,97.63
2022-12-17T21:35:29.801Z,95.82
2022-12-17T21:38:01.290Z,97.67
2022-12-17T21:40:35.479Z,94.45
2022-12-17T21:43:07.125Z,100.63
2022-12-17T21:45:42.167Z,89.82
2022-12-17T21:48:15.110Z,95.03
2022-12-17T21:50:46.919Z,95.63
2022-12-17T21:53:18.847Z,95.97
2022-12-17T21:56:05.428Z,90.32
2022-12-17T21:58:37.523Z,98.13
2022-12-17T22:01:24.494Z,87.70
2022-12-17T22:03:58.524Z,89.72
2022-12-17T22:06:38.133Z,94.57
2022-12-17T22:09:13.984Z,89.85
2022-12-17T22:12:03.294Z,95.00
2022-12-17T22:14:34.753Z,89.75
2022-12-17T22:17:06.223Z,84.25
2022-12-17T22:19:37.664Z,84.80
2022-12-17T22:22:09.092Z,90.32
2022-12-17T22:24:40.525Z,90.27
2022-12-17T22:27:12.155Z,90.10
2022-12-17T22:29:43.593Z,85.93
2022-12-17T22:32:15.023Z,91.10
2022-12-17T22:36:12.752Z,85.40
2022-12-17T22:40:34.315Z,82.38
2022-12-17T22:44:33.364Z,75.60
2022-12-17T22:44:41.788Z,81.22
2022-12-17T22:46:19.537Z,88.78
2022-12-17T22:48:51.208Z,93.55
2022-12-17T22:51:32.832Z,90.53
2022-12-17T22:54:09.224Z,77.97
2022-12-17T22:57:34.393Z,92.15
2022-12-17T22:59:34.417Z,86.35
2022-12-17T23:02:05.897Z,91.25
2022-12-17T23:04:37.369Z,93.43
2022-12-17T23:07:08.870Z,85.95
2022-12-17T23:09:40.349Z,91.30
2022-12-17T23:12:11.806Z,91.88
2022-12-17T23:14:43.242Z,89.35
2022-12-17T23:17:14.717Z,85.05
2022-12-17T23:19:46.105Z,84.10
2022-12-17T23:22:21.978Z,87.93
2022-12-17T23:24:53.868Z,76.93
2022-12-17T23:27:25.336Z,77.00
2022-12-17T23:29:56.799Z,77.60
2022-12-17T23:32:28.249Z,69.78
2022-12-17T23:34:59.703Z,72.57
2022-12-17T23:37:35.084Z,74.43
2022-12-17T23:40:11.609Z,83.77
2022-12-17T23:42:43.048Z,75.75
2022-12-17T23:45:14.463Z,77.50
2022-12-17T23:47:45.876Z,79.30
2022-12-17T23:50:17.404Z,88.35
2022-12-17T23:52:48.810Z,77.70
2022-12-17T23:55:20.200Z,90.57
2022-12-17T23:57:51.590Z,95.72
